Time;durP1;ratioP1;P1;durP2;ratioP2;P2;SDS_P1;SDS_P2;PMS_P1;PMS_P2;Temp;Humidity;BMP_temperature;BMP_pressure;BME280_temperature;BME280_humidity;BME280_pressure;Samples;Min_cycle;Max_cycle;Signal;HPM_P1;HPM_P2
2022/03/12 00:01:27;;;;;;;11.68;4.55;;;12.10;33.50;;;;;;5033966;28;20162;-75
2022/03/12 00:03:54;;;;;;;5.82;4.32;;;12.00;33.40;;;;;;5051792;28;20189;-75
2022/03/12 00:06:22;;;;;;;4.95;3.88;;;12.10;33.60;;;;;;5054973;28;20161;-75
2022/03/12 00:08:51;;;;;;;4.25;3.85;;;12.00;33.40;;;;;;5035787;28;20177;-77
2022/03/12 00:11:19;;;;;;;4.32;3.92;;;12.10;34.30;;;;;;5051093;28;20177;-76
2022/03/12 00:13:46;;;;;;;4.45;3.80;;;12.10;33.70;;;;;;5037207;28;20690;-76
2022/03/12 00:16:14;;;;;;;4.45;4.05;;;12.10;33.70;;;;;;5059722;28;20196;-76
2022/03/12 00:18:42;;;;;;;3.95;3.47;;;12.10;33.70;;;;;;5046978;28;20212;-76
2022/03/12 00:21:13;;;;;;;6.10;4.95;;;12.10;33.80;;;;;;5023528;28;20207;-76
2022/03/12 00:23:40;;;;;;;5.03;3.95;;;12.10;33.70;;;;;;5055202;28;20195;-76
2022/03/12 00:26:07;;;;;;;4.75;3.70;;;12.10;33.90;;;;;;5055291;28;20169;-76
2022/03/12 00:28:35;;;;;;;6.05;4.32;;;12.10;34.50;;;;;;5046365;28;20189;-77
2022/03/12 00:31:01;;;;;;;5.33;4.40;;;12.10;33.90;;;;;;5042763;28;20240;-77
2022/03/12 00:33:27;;;;;;;5.33;3.80;;;12.10;34.00;;;;;;5054612;28;20220;-77
2022/03/12 00:35:54;;;;;;;6.00;4.97;;;12.10;34.10;;;;;;5049893;28;20674;-77
2022/03/12 00:38:22;;;;;;;5.63;4.22;;;12.00;34.00;;;;;;5043878;28;20185;-76
2022/03/12 00:40:49;;;;;;;7.45;5.00;;;12.00;33.90;;;;;;5034039;28;20253;-76
2022/03/12 00:43:17;;;;;;;5.65;4.30;;;12.00;33.90;;;;;;5042802;28;20246;-76
2022/03/12 00:45:46;;;;;;;5.65;4.88;;;12.00;34.00;;;;;;5043735;28;20590;-77
2022/03/12 00:48:12;;;;;;;9.02;4.82;;;12.00;34.10;;;;;;5050979;28;20177;-77
2022/03/12 00:50:37;;;;;;;7.97;5.23;;;12.00;34.10;;;;;;5044351;28;20173;-77
2022/03/12 00:53:03;;;;;;;6.67;4.83;;;11.90;34.10;;;;;;5043103;28;20611;-76
2022/03/12 00:55:29;;;;;;;5.63;5.07;;;11.90;34.10;;;;;;5040822;28;20177;-76
2022/03/12 00:57:55;;;;;;;6.93;5.10;;;11.90;34.10;;;;;;5037808;28;20574;-75
2022/03/12 01:00:24;;;;;;;7.95;5.70;;;11.90;34.20;;;;;;5023472;28;20265;-75
2022/03/12 01:02:50;;;;;;;6.13;5.63;;;11.90;34.20;;;;;;5034341;28;20201;-75
2022/03/12 01:05:23;;;;;;;6.95;5.40;;;11.80;34.30;;;;;;5050502;28;20579;-75
2022/03/12 01:07:49;;;;;;;10.38;5.60;;;11.80;34.30;;;;;;5052986;28;20264;-76
2022/03/12 01:10:15;;;;;;;6.13;4.97;;;11.70;34.20;;;;;;5033943;28;20254;-75
2022/03/12 01:12:43;;;;;;;7.00;5.07;;;11.80;34.40;;;;;;5045731;28;21525;-74
2022/03/12 01:15:10;;;;;;;7.97;5.20;;;11.80;34.40;;;;;;5054027;28;20200;-75
2022/03/12 01:17:38;;;;;;;5.53;4.78;;;11.70;34.40;;;;;;5040715;28;20982;-75
2022/03/12 01:20:06;;;;;;;6.80;5.03;;;11.80;34.50;;;;;;5044319;28;20180;-75
2022/03/12 01:22:35;;;;;;;6.90;5.43;;;11.70;34.50;;;;;;5034202;28;20182;-76
2022/03/12 01:25:03;;;;;;;6.35;5.15;;;11.70;34.60;;;;;;5039317;28;20170;-75
2022/03/12 01:27:30;;;;;;;6.82;5.05;;;11.70;34.70;;;;;;5055094;28;20169;-75
2022/03/12 01:29:55;;;;;;;6.35;5.63;;;11.60;34.60;;;;;;5057004;28;20169;-76
2022/03/12 01:32:24;;;;;;;6.45;4.50;;;11.60;34.80;;;;;;5060396;28;20242;-75
2022/03/12 01:34:50;;;;;;;5.90;5.20;;;11.60;34.80;;;;;;5048819;28;20178;-76
2022/03/12 01:37:19;;;;;;;9.97;5.00;;;11.60;34.90;;;;;;5038729;28;20174;-76
2022/03/12 01:39:49;;;;;;;7.00;5.55;;;11.60;34.90;;;;;;5058648;28;20200;-76
2022/03/12 01:42:16;;;;;;;8.30;5.05;;;11.60;35.00;;;;;;5056992;28;20165;-76
2022/03/12 01:44:42;;;;;;;5.78;4.97;;;11.50;35.70;;;;;;5056729;28;20214;-76
2022/03/12 01:47:10;;;;;;;5.90;5.22;;;11.50;35.20;;;;;;5021233;28;20208;-76
2022/03/12 01:49:36;;;;;;;8.68;5.82;;;11.50;35.30;;;;;;5050231;28;20199;-76
2022/03/12 01:52:03;;;;;;;7.18;5.85;;;11.50;35.20;;;;;;5046791;28;20212;-76
2022/03/12 01:54:30;;;;;;;7.22;5.68;;;11.50;35.40;;;;;;5043430;28;20188;-77
2022/03/12 01:56:58;;;;;;;6.25;4.82;;;11.60;35.30;;;;;;5036116;28;20169;-77
2022/03/12 01:59:24;;;;;;;5.88;5.15;;;11.60;35.50;;;;;;5053517;28;20280;-76
2022/03/12 02:01:52;;;;;;;6.10;5.50;;;11.50;35.50;;;;;;5036612;28;20645;-76
2022/03/12 02:04:22;;;;;;;9.15;5.40;;;11.50;35.40;;;;;;5057700;28;20257;-76
2022/03/12 02:06:50;;;;;;;7.80;5.43;;;11.60;35.50;;;;;;5058763;28;20165;-77
2022/03/12 02:09:17;;;;;;;6.75;5.03;;;11.50;35.70;;;;;;5064690;28;20177;-77
2022/03/12 02:11:51;;;;;;;5.80;5.20;;;11.50;36.20;;;;;;5055451;28;20187;-76
2022/03/12 02:14:25;;;;;;;6.50;5.50;;;11.50;35.50;;;;;;5050604;28;20200;-76
2022/03/12 02:17:07;;;;;;;7.28;4.88;;;11.40;35.80;;;;;;5055528;28;20200;-76
2022/03/12 02:19:33;;;;;;;7.05;5.38;;;11.40;35.90;;;;;;5057623;28;20220;-75
2022/03/12 02:22:01;;;;;;;10.73;5.20;;;11.40;35.80;;;;;;5007710;28;20178;-76
2022/03/12 02:24:29;;;;;;;7.15;5.57;;;11.40;36.00;;;;;;5031508;28;20176;-76
2022/03/12 02:26:56;;;;;;;6.55;5.47;;;11.40;36.00;;;;;;5048498;28;20180;-76
2022/03/12 02:29:23;;;;;;;5.38;4.40;;;11.40;36.10;;;;;;5049914;28;20676;-78
2022/03/12 02:31:56;;;;;;;5.32;4.32;;;11.40;36.00;;;;;;5052195;28;20219;-76
2022/03/12 02:34:45;;;;;;;6.90;5.90;;;11.40;36.10;;;;;;5043517;28;20269;-77
2022/03/12 02:37:12;;;;;;;8.25;5.55;;;11.30;36.10;;;;;;5040600;28;20176;-76
2022/03/12 02:39:39;;;;;;;6.32;5.47;;;11.40;36.00;;;;;;5052734;28;20266;-76
2022/03/12 02:42:06;;;;;;;6.35;5.07;;;11.40;36.10;;;;;;5056601;28;20165;-76
2022/03/12 02:44:33;;;;;;;6.88;4.90;;;11.40;36.30;;;;;;5057659;28;20176;-77
2022/03/12 02:47:16;;;;;;;6.70;5.45;;;11.40;36.20;;;;;;5038824;28;20202;-77
2022/03/12 02:49:58;;;;;;;5.97;5.38;;;11.40;36.30;;;;;;5041868;28;20212;-76
2022/03/12 02:52:29;;;;;;;8.30;5.10;;;11.40;36.10;;;;;;5049748;28;20193;-77
2022/03/12 02:54:57;;;;;;;7.28;5.35;;;11.40;36.40;;;;;;5037538;28;20230;-77
2022/03/12 02:57:26;;;;;;;7.47;5.32;;;11.40;36.20;;;;;;5055396;28;20233;-77
2022/03/12 03:00:00;;;;;;;6.10;4.80;;;11.40;36.30;;;;;;5069104;28;20193;-76
2022/03/12 03:02:38;;;;;;;5.45;4.85;;;11.40;36.40;;;;;;5070849;28;20234;-77
2022/03/12 03:05:13;;;;;;;4.60;4.20;;;11.40;36.30;;;;;;5071363;28;20535;-76
2022/03/12 03:07:45;;;;;;;7.85;5.53;;;11.40;36.40;;;;;;5071373;28;20163;-76
2022/03/12 03:10:33;;;;;;;8.35;5.43;;;11.30;36.90;;;;;;5035268;28;20169;-76
2022/03/12 03:13:03;;;;;;;5.63;4.20;;;11.20;37.40;;;;;;5071338;28;20177;-76
2022/03/12 03:15:30;;;;;;;7.45;6.45;;;11.20;36.70;;;;;;5068769;28;20188;-76
2022/03/12 03:17:57;;;;;;;8.93;6.15;;;11.20;37.70;;;;;;5066436;28;20227;-76
2022/03/12 03:20:23;;;;;;;6.95;5.20;;;11.10;37.30;;;;;;5064602;28;20161;-77
2022/03/12 03:22:48;;;;;;;6.93;4.97;;;11.10;37.40;;;;;;5057731;28;20196;-76
2022/03/12 03:25:14;;;;;;;7.30;5.00;;;11.00;37.50;;;;;;5070981;28;20164;-76
2022/03/12 03:27:40;;;;;;;6.20;5.20;;;11.00;37.30;;;;;;5070573;28;20169;-76
2022/03/12 03:30:07;;;;;;;6.38;5.30;;;11.00;37.40;;;;;;5070661;28;20172;-75
2022/03/12 03:32:32;;;;;;;7.03;6.18;;;11.00;37.60;;;;;;5072863;28;20271;-76
2022/03/12 03:34:58;;;;;;;4.97;4.50;;;11.00;37.20;;;;;;5076153;28;20171;-76
2022/03/12 03:37:24;;;;;;;6.20;5.10;;;11.10;37.30;;;;;;5077426;28;20171;-76
2022/03/12 03:39:49;;;;;;;7.30;5.90;;;11.10;37.20;;;;;;5055500;28;20235;-76
2022/03/12 03:42:21;;;;;;;5.60;5.03;;;11.10;37.50;;;;;;5052189;28;20173;-75
2022/03/12 03:44:47;;;;;;;5.13;4.60;;;11.10;37.30;;;;;;5045181;28;20183;-76
2022/03/12 03:47:13;;;;;;;10.53;5.97;;;11.10;37.30;;;;;;5057117;28;20169;-76
2022/03/12 03:49:39;;;;;;;6.05;5.45;;;11.10;37.90;;;;;;5041892;28;20181;-76
2022/03/12 03:52:07;;;;;;;7.00;4.90;;;11.10;37.50;;;;;;5042942;28;20695;-76
2022/03/12 03:54:33;;;;;;;5.95;4.70;;;11.10;37.80;;;;;;5046353;28;20588;-76
2022/03/12 03:56:59;;;;;;;6.93;5.40;;;11.10;37.90;;;;;;5039859;28;20170;-76
2022/03/12 03:59:24;;;;;;;7.60;5.23;;;11.10;38.50;;;;;;5041018;28;20279;-76
2022/03/12 04:01:50;;;;;;;6.70;4.97;;;11.10;37.70;;;;;;5037303;28;20313;-76
2022/03/12 04:04:17;;;;;;;5.70;5.10;;;11.10;37.60;;;;;;5036548;28;20190;-76
2022/03/12 04:06:42;;;;;;;6.30;5.28;;;11.10;37.80;;;;;;5052404;28;20564;-76
2022/03/12 04:09:08;;;;;;;6.07;5.47;;;11.10;37.60;;;;;;5056462;28;20184;-76
2022/03/12 04:11:34;;;;;;;8.33;4.80;;;11.10;37.80;;;;;;5057218;28;20170;-76
2022/03/12 04:14:01;;;;;;;5.47;4.82;;;11.10;37.60;;;;;;5050863;28;20189;-76
2022/03/12 04:16:28;;;;;;;6.72;6.03;;;11.10;37.90;;;;;;5050550;28;20185;-76
2022/03/12 04:18:54;;;;;;;7.30;5.68;;;11.10;37.60;;;;;;5049270;28;20284;-77
2022/03/12 04:21:21;;;;;;;6.97;5.15;;;11.10;37.80;;;;;;5046283;28;20253;-76
2022/03/12 04:23:49;;;;;;;7.07;5.88;;;11.00;37.90;;;;;;5041665;28;20620;-77
2022/03/12 04:26:16;;;;;;;5.72;5.10;;;11.00;38.10;;;;;;5041630;28;20237;-76
2022/03/12 04:28:42;;;;;;;6.88;5.70;;;10.90;38.30;;;;;;5036855;28;20178;-76
2022/03/12 04:31:09;;;;;;;6.68;5.97;;;10.90;38.10;;;;;;5033300;28;20180;-76
2022/03/12 04:33:38;;;;;;;6.90;6.20;;;10.90;38.50;;;;;;5033914;28;20194;-76
2022/03/12 04:36:04;;;;;;;6.20;5.25;;;10.90;38.10;;;;;;5038543;28;20188;-76
2022/03/12 04:38:31;;;;;;;7.28;5.15;;;10.90;37.90;;;;;;5015690;28;20209;-76
2022/03/12 04:40:57;;;;;;;7.10;5.50;;;10.90;38.60;;;;;;5044784;28;20177;-77
2022/03/12 04:43:26;;;;;;;6.72;5.28;;;10.90;38.20;;;;;;5050929;28;20197;-76
2022/03/12 04:45:52;;;;;;;5.75;5.22;;;10.90;38.40;;;;;;5047927;28;20229;-76
2022/03/12 04:48:21;;;;;;;7.70;5.90;;;10.90;38.00;;;;;;5045649;28;20181;-76
2022/03/12 04:50:51;;;;;;;7.00;6.30;;;10.80;38.50;;;;;;5035927;28;20208;-76
2022/03/12 04:53:18;;;;;;;6.45;5.40;;;10.70;38.80;;;;;;5051989;28;20185;-76
2022/03/12 04:55:45;;;;;;;7.47;6.03;;;10.70;38.80;;;;;;5053110;28;20250;-76
2022/03/12 04:58:11;;;;;;;7.03;5.30;;;10.70;38.60;;;;;;5051554;28;20610;-76
2022/03/12 05:00:40;;;;;;;6.28;5.68;;;10.70;38.80;;;;;;5051443;28;20169;-76
2022/03/12 05:03:19;;;;;;;9.73;6.05;;;10.70;38.80;;;;;;5045269;28;20619;-76
2022/03/12 05:05:54;;;;;;;7.25;5.18;;;10.70;38.70;;;;;;5023598;28;20174;-76
2022/03/12 05:08:28;;;;;;;11.70;7.57;;;10.70;39.20;;;;;;5022534;28;20177;-76
2022/03/12 05:10:56;;;;;;;7.55;5.93;;;10.70;38.90;;;;;;5045419;28;20235;-76
2022/03/12 05:13:29;;;;;;;8.95;6.28;;;10.70;38.60;;;;;;5043460;28;20653;-77
2022/03/12 05:16:02;;;;;;;6.75;4.40;;;10.60;39.10;;;;;;5041280;28;20177;-77
2022/03/12 05:18:30;;;;;;;6.28;5.00;;;10.60;38.80;;;;;;5039185;28;20194;-76
2022/03/12 05:20:56;;;;;;;6.65;5.32;;;10.60;39.20;;;;;;5038155;28;20668;-77
2022/03/12 05:23:25;;;;;;;8.35;6.20;;;10.60;39.00;;;;;;5043570;28;20220;-77
2022/03/12 05:25:53;;;;;;;9.55;5.97;;;10.60;39.40;;;;;;5039010;28;20177;-76
2022/03/12 05:28:29;;;;;;;5.95;4.72;;;10.50;39.90;;;;;;5035000;28;20257;-75
2022/03/12 05:31:00;;;;;;;7.70;5.75;;;10.50;39.60;;;;;;5035523;28;20174;-78
2022/03/12 05:33:27;;;;;;;7.45;5.45;;;10.50;39.50;;;;;;5034473;28;20236;-75
2022/03/12 05:35:54;;;;;;;8.57;6.25;;;10.50;40.40;;;;;;5036892;28;20201;-76
2022/03/12 05:38:21;;;;;;;8.65;6.50;;;10.50;39.80;;;;;;5048367;28;20215;-77
2022/03/12 05:40:48;;;;;;;9.30;6.25;;;10.50;40.30;;;;;;5027112;28;20178;-77
2022/03/12 05:43:15;;;;;;;6.13;4.82;;;10.50;40.70;;;;;;5016694;28;20182;-77
2022/03/12 05:45:50;;;;;;;6.22;5.47;;;10.50;40.10;;;;;;5020455;28;20183;-76
2022/03/12 05:48:16;;;;;;;10.68;7.28;;;10.50;40.50;;;;;;5017334;28;20240;-77
2022/03/12 05:50:45;;;;;;;7.35;5.57;;;10.40;41.40;;;;;;5053946;28;20193;-76
2022/03/12 05:53:13;;;;;;;9.60;7.25;;;10.40;41.10;;;;;;5057442;28;20185;-76
2022/03/12 05:55:40;;;;;;;7.80;5.78;;;10.40;41.10;;;;;;5041096;28;20316;-76
2022/03/12 05:58:10;;;;;;;7.00;5.70;;;10.40;41.20;;;;;;5047223;28;20711;-77
2022/03/12 06:00:39;;;;;;;8.80;6.95;;;10.30;41.90;;;;;;5047799;28;20170;-76
2022/03/12 06:03:06;;;;;;;7.85;7.05;;;10.30;42.40;;;;;;5019090;28;20258;-76
2022/03/12 06:05:33;;;;;;;7.07;6.38;;;10.30;42.10;;;;;;5012203;28;20543;-75
2022/03/12 06:07:59;;;;;;;7.55;6.07;;;10.20;42.70;;;;;;5014370;28;20178;-76
2022/03/12 06:10:32;;;;;;;7.60;6.00;;;10.20;43.10;;;;;;5012029;28;20182;-76
2022/03/12 06:13:03;;;;;;;7.95;6.38;;;10.20;43.30;;;;;;5012763;28;20186;-75
2022/03/12 06:15:29;;;;;;;7.55;5.28;;;10.20;43.20;;;;;;5056134;28;20223;-75
2022/03/12 06:17:55;;;;;;;8.10;6.03;;;10.20;43.00;;;;;;5042797;28;20717;-76
2022/03/12 06:20:22;;;;;;;6.23;5.60;;;10.20;42.90;;;;;;5032572;28;20177;-76
2022/03/12 06:22:49;;;;;;;8.02;6.07;;;10.30;43.40;;;;;;5039653;28;20600;-76
2022/03/12 06:25:17;;;;;;;10.73;6.25;;;10.30;43.10;;;;;;5047235;28;20177;-76
2022/03/12 06:27:47;;;;;;;6.80;5.90;;;10.30;44.00;;;;;;5060155;28;20578;-76
2022/03/12 06:30:14;;;;;;;9.00;5.93;;;10.30;44.40;;;;;;5073284;28;20173;-76
2022/03/12 06:32:43;;;;;;;9.00;6.43;;;10.30;43.70;;;;;;5057075;28;20599;-76
2022/03/12 06:35:12;;;;;;;8.15;6.10;;;10.30;44.20;;;;;;5050044;28;20166;-76
2022/03/12 06:37:40;;;;;;;8.05;6.45;;;10.30;45.10;;;;;;5052217;28;20174;-76
2022/03/12 06:40:11;;;;;;;8.73;5.93;;;10.30;45.60;;;;;;5045678;28;20600;-76
2022/03/12 06:42:41;;;;;;;11.43;5.93;;;10.40;44.90;;;;;;5054854;28;20193;-76
2022/03/12 06:45:08;;;;;;;6.97;6.25;;;10.40;45.10;;;;;;5030858;28;20264;-76
2022/03/12 06:47:35;;;;;;;8.10;6.25;;;10.50;45.40;;;;;;5043383;28;20193;-76
2022/03/12 06:50:01;;;;;;;7.60;6.45;;;10.50;45.10;;;;;;5054859;28;20662;-76
2022/03/12 06:52:28;;;;;;;8.35;5.93;;;10.60;45.20;;;;;;5036851;28;20207;-76
2022/03/12 06:54:55;;;;;;;8.50;5.55;;;10.60;45.20;;;;;;5043076;28;20698;-76
2022/03/12 06:57:22;;;;;;;8.10;6.22;;;10.70;46.30;;;;;;5052618;28;20160;-76
2022/03/12 06:59:48;;;;;;;6.97;5.38;;;10.70;46.00;;;;;;5048698;28;20204;-76
2022/03/12 07:02:14;;;;;;;7.10;5.20;;;10.80;46.40;;;;;;5029439;28;20248;-76
2022/03/12 07:04:40;;;;;;;8.77;5.95;;;10.90;45.60;;;;;;5029383;28;21193;-76
2022/03/12 07:07:06;;;;;;;7.25;5.82;;;10.90;47.30;;;;;;5036344;28;20200;-76
2022/03/12 07:09:33;;;;;;;6.70;5.60;;;10.90;46.80;;;;;;5052784;28;20176;-76
2022/03/12 07:12:00;;;;;;;6.93;5.30;;;11.00;47.00;;;;;;5047759;28;20173;-76
2022/03/12 07:14:28;;;;;;;6.82;5.85;;;11.10;45.90;;;;;;5032977;28;20308;-76
2022/03/12 07:16:54;;;;;;;9.03;5.10;;;11.20;46.70;;;;;;5041998;28;20268;-76
2022/03/12 07:19:20;;;;;;;5.88;5.28;;;11.30;46.10;;;;;;5041586;28;20202;-76
2022/03/12 07:21:46;;;;;;;6.50;4.90;;;11.40;47.00;;;;;;5045400;28;20940;-76
2022/03/12 07:24:12;;;;;;;7.17;5.13;;;11.50;46.80;;;;;;5046666;28;20236;-76
2022/03/12 07:26:39;;;;;;;7.83;6.13;;;11.60;46.50;;;;;;5047131;28;20191;-76
2022/03/12 07:29:05;;;;;;;9.38;6.05;;;11.60;48.30;;;;;;5039108;28;20684;-76
2022/03/12 07:31:31;;;;;;;6.85;5.68;;;11.60;48.20;;;;;;5044073;28;20196;-76
2022/03/12 07:33:57;;;;;;;7.37;5.60;;;11.70;48.00;;;;;;5040208;28;20198;-76
2022/03/12 07:36:25;;;;;;;8.15;6.50;;;11.70;48.50;;;;;;5046341;28;20575;-76
2022/03/12 07:38:50;;;;;;;7.60;4.80;;;11.80;47.70;;;;;;5037319;28;20203;-76
2022/03/12 07:41:16;;;;;;;6.70;5.30;;;11.80;48.20;;;;;;5038766;28;20181;-76
2022/03/12 07:43:42;;;;;;;7.43;6.63;;;11.90;48.10;;;;;;5019345;28;20185;-76
2022/03/12 07:46:08;;;;;;;7.22;5.35;;;11.90;48.80;;;;;;5028538;28;20190;-76
2022/03/12 07:48:34;;;;;;;8.93;5.60;;;12.00;49.20;;;;;;5047812;28;20179;-76
2022/03/12 07:51:01;;;;;;;9.32;5.43;;;12.10;48.30;;;;;;5012989;28;20266;-76
2022/03/12 07:53:28;;;;;;;6.85;6.10;;;12.10;49.10;;;;;;5027806;28;20248;-75
2022/03/12 07:55:54;;;;;;;9.60;5.85;;;12.30;48.70;;;;;;5004387;28;20208;-76
2022/03/12 07:58:21;;;;;;;5.88;5.25;;;12.60;49.20;;;;;;5040974;28;20190;-76
2022/03/12 08:00:46;;;;;;;6.68;5.68;;;12.90;49.60;;;;;;5038729;28;20258;-76
2022/03/12 08:03:13;;;;;;;9.87;6.30;;;13.40;50.00;;;;;;5020291;28;20206;-78
2022/03/12 08:05:39;;;;;;;7.30;5.30;;;13.80;49.80;;;;;;5039108;28;20181;-76
2022/03/12 08:08:05;;;;;;;6.97;6.30;;;14.30;49.50;;;;;;5041830;28;20579;-76
2022/03/12 08:11:24;;;;;;;10.40;5.97;;;14.80;49.30;;;;;;5040759;28;20170;-77
2022/03/12 08:13:18;;;;;;;7.47;5.93;;;15.30;49.00;;;;;;5043505;28;20618;-77
2022/03/12 08:15:45;;;;;;;6.83;5.67;;;15.70;48.70;;;;;;5043483;28;20664;-77
2022/03/12 08:18:11;;;;;;;6.30;5.43;;;16.10;48.20;;;;;;5048575;28;21394;-77
2022/03/12 08:20:38;;;;;;;6.20;4.93;;;16.50;48.90;;;;;;5041499;28;20564;-77
2022/03/12 08:23:05;;;;;;;7.60;5.60;;;16.80;48.00;;;;;;5049209;28;20591;-77
2022/03/12 08:25:32;;;;;;;6.80;6.20;;;17.20;47.50;;;;;;5029732;28;20594;-77
2022/03/12 08:27:58;;;;;;;5.93;4.70;;;17.40;47.40;;;;;;5048073;28;20584;-79
2022/03/12 08:30:24;;;;;;;8.00;6.10;;;17.70;47.40;;;;;;5056286;28;20629;-80
2022/03/12 08:32:50;;;;;;;6.93;5.60;;;18.10;47.60;;;;;;5023601;28;20713;-79
2022/03/12 08:35:17;;;;;;;6.30;5.17;;;18.30;46.80;;;;;;5044900;28;20599;-79
2022/03/12 08:37:43;;;;;;;8.00;6.30;;;18.60;47.20;;;;;;5043818;28;20182;-79
2022/03/12 08:40:10;;;;;;;5.93;5.33;;;18.80;46.50;;;;;;5039720;28;20594;-78
2022/03/12 08:42:36;;;;;;;8.97;4.80;;;19.10;46.90;;;;;;5043458;28;20272;-79
2022/03/12 08:45:02;;;;;;;5.47;4.73;;;19.20;46.30;;;;;;5022085;28;21009;-79
2022/03/12 08:47:28;;;;;;;6.90;6.00;;;19.40;46.40;;;;;;5026317;28;20614;-79
2022/03/12 08:49:54;;;;;;;5.63;5.13;;;19.60;46.60;;;;;;5040956;28;20646;-79
2022/03/12 08:52:20;;;;;;;5.53;4.93;;;20.10;47.20;;;;;;5042800;28;20571;-79
2022/03/12 08:54:46;;;;;;;5.00;4.50;;;20.40;47.10;;;;;;5044800;28;20177;-80
2022/03/12 08:57:12;;;;;;;4.87;4.47;;;20.90;47.50;;;;;;5043931;28;20609;-80
2022/03/12 08:59:37;;;;;;;4.70;4.20;;;21.30;47.20;;;;;;5039856;28;20638;-80
2022/03/12 09:02:03;;;;;;;4.33;3.90;;;21.60;47.20;;;;;;5043434;28;20299;-79
2022/03/12 09:04:32;;;;;;;5.37;4.13;;;21.90;47.40;;;;;;5040536;28;20170;-79
2022/03/12 09:06:58;;;;;;;6.00;3.90;;;22.10;46.80;;;;;;5045776;28;20607;-79
2022/03/12 09:09:23;;;;;;;3.63;3.30;;;22.40;47.40;;;;;;5042133;28;20629;-79
2022/03/12 09:11:50;;;;;;;3.47;3.17;;;23.00;48.00;;;;;;5042249;28;20600;-79
2022/03/12 09:14:16;;;;;;;2.87;2.60;;;23.70;48.50;;;;;;5024212;28;20655;-79
2022/03/12 09:16:42;;;;;;;2.47;2.27;;;24.20;48.00;;;;;;5044234;28;20275;-79
2022/03/12 09:19:08;;;;;;;4.07;3.20;;;24.30;47.60;;;;;;5040976;28;21229;-79
2022/03/12 09:21:35;;;;;;;4.53;3.27;;;24.50;47.30;;;;;;5042927;28;20276;-79
2022/03/12 09:24:03;;;;;;;4.13;2.60;;;24.70;47.20;;;;;;5009391;28;20611;-79
2022/03/12 09:26:29;;;;;;;2.83;2.53;;;24.90;47.40;;;;;;5042638;28;20561;-79
2022/03/12 09:28:55;;;;;;;3.43;3.13;;;25.10;47.00;;;;;;5042817;28;21181;-80
2022/03/12 09:31:22;;;;;;;5.20;3.17;;;25.10;46.80;;;;;;5020726;28;20625;-80
2022/03/12 09:33:48;;;;;;;3.27;2.97;;;25.10;46.60;;;;;;5045905;28;20611;-79
2022/03/12 09:36:13;;;;;;;3.93;2.73;;;25.30;46.60;;;;;;5024865;28;21132;-79
2022/03/12 09:38:39;;;;;;;3.13;2.60;;;25.30;46.50;;;;;;5041284;28;20703;-79
2022/03/12 09:41:05;;;;;;;2.60;2.33;;;25.60;46.70;;;;;;5043495;28;20180;-79
2022/03/12 09:43:31;;;;;;;2.90;2.40;;;25.80;46.70;;;;;;5041297;28;21000;-79
2022/03/12 09:45:59;;;;;;;2.57;1.87;;;26.10;46.80;;;;;;5044040;28;20598;-80
2022/03/12 09:48:25;;;;;;;3.33;1.90;;;26.40;46.60;;;;;;5039085;28;20584;-80
2022/03/12 09:50:51;;;;;;;2.13;1.70;;;26.70;46.50;;;;;;5041648;28;21159;-80
2022/03/12 09:53:16;;;;;;;2.03;1.50;;;26.90;46.20;;;;;;5042585;28;20189;-80
2022/03/12 09:55:42;;;;;;;2.40;1.80;;;27.00;45.80;;;;;;5043366;28;20170;-80
2022/03/12 09:58:08;;;;;;;2.93;2.63;;;27.00;45.40;;;;;;5039489;28;20205;-80
2022/03/12 10:00:34;;;;;;;2.23;1.77;;;27.00;45.30;;;;;;5040817;28;20184;-80
2022/03/12 10:03:00;;;;;;;2.33;1.50;;;27.10;45.20;;;;;;5036296;28;20193;-80
2022/03/12 10:05:27;;;;;;;1.73;1.43;;;27.30;45.10;;;;;;5041780;28;20606;-80
2022/03/12 10:07:53;;;;;;;2.33;1.50;;;27.40;45.10;;;;;;5042187;28;20575;-80
2022/03/12 10:10:22;;;;;;;2.87;1.43;;;27.60;45.00;;;;;;5042471;28;20691;-79
2022/03/12 10:12:49;;;;;;;2.30;1.50;;;27.60;44.60;;;;;;5039825;28;20240;-80
2022/03/12 10:15:16;;;;;;;3.37;1.40;;;27.60;44.40;;;;;;5041903;28;20572;-80
2022/03/12 10:17:43;;;;;;;3.80;1.20;;;27.60;44.20;;;;;;5040703;28;20583;-80
2022/03/12 10:20:11;;;;;;;2.13;1.03;;;27.80;44.30;;;;;;5041095;28;20583;-80
2022/03/12 10:22:42;;;;;;;4.87;1.50;;;28.00;44.30;;;;;;5043070;28;20611;-80
2022/03/12 10:25:08;;;;;;;3.20;1.60;;;28.30;44.40;;;;;;5039872;28;20620;-80
2022/03/12 10:27:34;;;;;;;2.87;1.20;;;28.30;43.20;;;;;;5036021;28;20634;-80
2022/03/12 10:30:01;;;;;;;1.97;1.00;;;27.80;42.50;;;;;;5041499;28;20678;-80
2022/03/12 10:32:29;;;;;;;2.10;1.40;;;27.40;42.30;;;;;;5039958;28;20681;-80
2022/03/12 10:34:59;;;;;;;2.07;1.03;;;26.80;41.90;;;;;;5040118;28;20575;-80
2022/03/12 10:37:31;;;;;;;1.70;1.10;;;26.00;41.90;;;;;;5021326;28;20580;-80
2022/03/12 10:40:14;;;;;;;1.77;1.07;;;25.50;42.30;;;;;;5038042;28;20727;-80
2022/03/12 10:42:56;;;;;;;2.13;1.10;;;25.10;43.10;;;;;;5039795;28;20695;-80
2022/03/12 10:45:27;;;;;;;1.90;1.33;;;25.10;43.90;;;;;;5038595;28;20631;-79
2022/03/12 10:47:59;;;;;;;2.27;1.37;;;24.60;43.50;;;;;;5037835;28;21007;-79
2022/03/12 10:50:29;;;;;;;5.73;1.23;;;24.00;43.20;;;;;;5040206;28;20571;-79
2022/03/12 10:52:58;;;;;;;4.63;1.40;;;23.70;44.20;;;;;;5023975;28;21011;-78
2022/03/12 10:55:33;;;;;;;2.17;1.30;;;23.70;44.10;;;;;;5038126;28;20592;-78
2022/03/12 10:58:26;;;;;;;3.70;1.40;;;23.60;44.30;;;;;;5040458;28;20581;-78
2022/03/12 11:00:55;;;;;;;2.60;1.90;;;23.00;44.40;;;;;;5035781;28;21175;-78
2022/03/12 11:03:26;;;;;;;2.23;1.77;;;22.70;44.70;;;;;;5039556;28;21014;-79
2022/03/12 11:05:54;;;;;;;2.50;1.70;;;22.00;44.80;;;;;;5035974;28;20668;-79
2022/03/12 11:08:27;;;;;;;2.97;1.70;;;21.70;45.70;;;;;;5041875;28;20947;-79
2022/03/12 11:11:16;;;;;;;7.93;2.07;;;21.60;45.40;;;;;;5041520;28;20579;-79
2022/03/12 11:13:50;;;;;;;3.40;1.10;;;21.40;45.70;;;;;;5026729;28;20642;-80
2022/03/12 11:16:28;;;;;;;2.30;1.20;;;21.20;45.60;;;;;;5009948;28;20988;-79
2022/03/12 11:18:59;;;;;;;2.00;1.43;;;21.00;45.60;;;;;;5042131;28;20623;-73
2022/03/12 11:21:39;;;;;;;5.83;3.60;;;20.80;45.90;;;;;;5035668;28;20569;-75
2022/03/12 11:24:23;;;;;;;6.80;2.80;;;20.40;46.50;;;;;;5044231;28;20786;-73
2022/03/12 11:26:58;;;;;;;5.53;3.40;;;20.00;46.80;;;;;;5029224;28;20710;-75
2022/03/12 11:29:26;;;;;;;3.77;2.20;;;19.70;47.20;;;;;;5037883;28;20614;-74
2022/03/12 11:32:04;;;;;;;3.03;1.63;;;19.50;47.30;;;;;;5027659;28;20587;-74
2022/03/12 11:34:40;;;;;;;2.23;1.50;;;19.40;47.70;;;;;;5047154;28;20583;-74
2022/03/12 11:37:18;;;;;;;1.90;1.00;;;19.20;48.40;;;;;;5036418;28;21135;-74
2022/03/12 11:39:52;;;;;;;2.80;1.20;;;19.30;48.90;;;;;;5039042;28;20624;-73
2022/03/12 11:42:20;;;;;;;4.03;1.20;;;19.30;48.20;;;;;;5033791;28;20691;-73
2022/03/12 11:44:50;;;;;;;3.20;1.40;;;19.40;48.20;;;;;;5038762;28;20701;-73
2022/03/12 11:47:22;;;;;;;2.70;1.07;;;19.30;48.60;;;;;;5040741;28;20575;-75
2022/03/12 11:49:50;;;;;;;2.83;1.80;;;19.30;48.40;;;;;;5018570;28;20605;-75
2022/03/12 11:52:16;;;;;;;2.17;1.57;;;19.30;48.40;;;;;;5041804;28;20575;-75
2022/03/12 11:54:43;;;;;;;3.93;1.13;;;19.30;48.60;;;;;;5040794;28;20662;-74
2022/03/12 11:57:12;;;;;;;2.77;1.20;;;19.10;48.50;;;;;;5044192;28;20575;-74
2022/03/12 11:59:38;;;;;;;3.03;1.17;;;19.00;49.10;;;;;;5042178;28;20616;-75
2022/03/12 12:02:25;;;;;;;2.40;1.33;;;18.90;49.00;;;;;;5044359;28;20921;-75
2022/03/12 12:04:53;;;;;;;4.53;1.47;;;18.90;49.10;;;;;;5043533;28;20592;-75
2022/03/12 12:07:21;;;;;;;2.43;1.47;;;19.00;49.10;;;;;;5026435;28;20586;-75
2022/03/12 12:09:47;;;;;;;4.43;2.07;;;19.10;49.00;;;;;;5026007;28;20672;-75
2022/03/12 12:12:13;;;;;;;2.40;1.80;;;19.20;49.20;;;;;;5043355;28;20749;-75
2022/03/12 12:14:43;;;;;;;2.43;1.60;;;19.20;49.40;;;;;;5040801;28;20184;-74
2022/03/12 12:17:10;;;;;;;3.43;0.93;;;19.20;49.10;;;;;;5048412;28;20947;-75
2022/03/12 12:19:36;;;;;;;2.70;1.00;;;19.20;48.90;;;;;;5045062;28;20633;-75
2022/03/12 12:22:03;;;;;;;2.03;1.10;;;19.20;48.90;;;;;;5042995;28;20580;-75
2022/03/12 12:24:31;;;;;;;3.53;1.00;;;19.30;49.00;;;;;;5042213;28;20588;-75
2022/03/12 12:27:06;;;;;;;1.70;1.07;;;19.20;49.20;;;;;;5045532;28;20616;-75
2022/03/12 12:29:45;;;;;;;1.80;0.80;;;19.10;49.50;;;;;;5038739;28;20617;-75
2022/03/12 12:32:13;;;;;;;1.60;0.90;;;19.10;49.30;;;;;;5031505;28;20632;-74
2022/03/12 12:35:04;;;;;;;1.87;0.80;;;19.10;49.30;;;;;;5044566;28;20587;-75
2022/03/12 12:37:49;;;;;;;1.63;0.70;;;19.20;49.40;;;;;;5023286;28;20583;-75
2022/03/12 12:40:21;;;;;;;1.90;0.70;;;19.30;49.50;;;;;;5045574;28;20579;-75
2022/03/12 12:42:51;;;;;;;1.40;0.70;;;19.50;49.70;;;;;;5041251;28;20946;-75
2022/03/12 12:45:20;;;;;;;1.40;0.70;;;19.60;50.00;;;;;;5039809;28;21032;-75
2022/03/12 12:47:46;;;;;;;2.03;0.80;;;19.60;49.90;;;;;;5041303;28;20974;-75
2022/03/12 12:50:24;;;;;;;2.57;0.80;;;19.70;50.10;;;;;;5033391;28;20579;-75
2022/03/12 12:53:16;;;;;;;1.40;0.70;;;20.00;50.40;;;;;;5041646;28;20612;-75